sensor_id;sensor_type;location;lat;lon;timestamp;temperature;humidity
39067;DHT22;24821;51.988;6.020;2022-09-17T00:00:37;13.30;96.80
39067;DHT22;24821;51.988;6.020;2022-09-17T00:03:03;13.30;96.90
39067;DHT22;24821;51.988;6.020;2022-09-17T00:05:29;13.30;97.10
39067;DHT22;24821;51.988;6.020;2022-09-17T00:07:54;13.30;97.30
39067;DHT22;24821;51.988;6.020;2022-09-17T00:10:20;13.20;97.40
39067;DHT22;24821;51.988;6.020;2022-09-17T00:12:47;13.20;97.60
39067;DHT22;24821;51.988;6.020;2022-09-17T00:15:13;13.10;97.60
39067;DHT22;24821;51.988;6.020;2022-09-17T00:17:40;13.00;97.70
39067;DHT22;24821;51.988;6.020;2022-09-17T00:20:07;13.00;97.80
39067;DHT22;24821;51.988;6.020;2022-09-17T00:22:37;13.00;97.90
39067;DHT22;24821;51.988;6.020;2022-09-17T00:25:03;13.00;98.10
39067;DHT22;24821;51.988;6.020;2022-09-17T00:27:30;12.90;98.20
39067;DHT22;24821;51.988;6.020;2022-09-17T00:29:55;12.90;98.30
39067;DHT22;24821;51.988;6.020;2022-09-17T00:32:21;12.90;98.30
39067;DHT22;24821;51.988;6.020;2022-09-17T00:34:48;12.90;98.30
39067;DHT22;24821;51.988;6.020;2022-09-17T00:37:19;12.90;98.40
39067;DHT22;24821;51.988;6.020;2022-09-17T00:39:44;12.90;98.40
39067;DHT22;24821;51.988;6.020;2022-09-17T00:42:14;13.00;98.40
39067;DHT22;24821;51.988;6.020;2022-09-17T00:44:50;12.90;98.30
39067;DHT22;24821;51.988;6.020;2022-09-17T00:47:32;12.90;98.40
39067;DHT22;24821;51.988;6.020;2022-09-17T00:52:36;12.80;98.50
39067;DHT22;24821;51.988;6.020;2022-09-17T00:57:42;12.90;98.70
39067;DHT22;24821;51.988;6.020;2022-09-17T01:00:12;12.90;98.70
39067;DHT22;24821;51.988;6.020;2022-09-17T01:02:38;12.80;98.60
39067;DHT22;24821;51.988;6.020;2022-09-17T01:05:05;12.90;98.70
39067;DHT22;24821;51.988;6.020;2022-09-17T01:07:47;12.90;98.60
39067;DHT22;24821;51.988;6.020;2022-09-17T01:10:20;12.90;98.50
39067;DHT22;24821;51.988;6.020;2022-09-17T01:21:37;12.80;98.50
39067;DHT22;24821;51.988;6.020;2022-09-17T01:35:32;12.60;99.00
39067;DHT22;24821;51.988;6.020;2022-09-17T01:38:09;12.60;99.00
39067;DHT22;24821;51.988;6.020;2022-09-17T01:40:53;12.70;99.20
39067;DHT22;24821;51.988;6.020;2022-09-17T01:43:31;12.60;99.10
39067;DHT22;24821;51.988;6.020;2022-09-17T01:48:48;12.70;99.40
39067;DHT22;24821;51.988;6.020;2022-09-17T01:51:21;12.70;99.70
39067;DHT22;24821;51.988;6.020;2022-09-17T01:53:54;12.70;99.80
39067;DHT22;24821;51.988;6.020;2022-09-17T01:56:25;12.70;99.90
39067;DHT22;24821;51.988;6.020;2022-09-17T01:59:01;12.70;99.90
39067;DHT22;24821;51.988;6.020;2022-09-17T02:01:30;12.70;99.90
39067;DHT22;24821;51.988;6.020;2022-09-17T02:04:08;12.60;99.90
39067;DHT22;24821;51.988;6.020;2022-09-17T02:06:38;12.70;99.90
39067;DHT22;24821;51.988;6.020;2022-09-17T02:09:12;12.70;99.90
39067;DHT22;24821;51.988;6.020;2022-09-17T02:11:43;12.70;99.90
39067;DHT22;24821;51.988;6.020;2022-09-17T02:14:24;12.60;99.90
39067;DHT22;24821;51.988;6.020;2022-09-17T02:16:55;12.60;99.90
39067;DHT22;24821;51.988;6.020;2022-09-17T02:19:27;12.60;99.90
39067;DHT22;24821;51.988;6.020;2022-09-17T02:22:08;12.60;99.90
39067;DHT22;24821;51.988;6.020;2022-09-17T02:24:53;12.50;99.90
39067;DHT22;24821;51.988;6.020;2022-09-17T02:28:04;12.50;99.90
39067;DHT22;24821;51.988;6.020;2022-09-17T02:30:32;12.60;99.90
39067;DHT22;24821;51.988;6.020;2022-09-17T02:33:01;12.50;99.90
39067;DHT22;24821;51.988;6.020;2022-09-17T02:35:26;12.50;99.90
39067;DHT22;24821;51.988;6.020;2022-09-17T02:37:52;12.50;99.90
39067;DHT22;24821;51.988;6.020;2022-09-17T02:40:19;12.50;99.90
39067;DHT22;24821;51.988;6.020;2022-09-17T02:43:25;12.40;99.90
39067;DHT22;24821;51.988;6.020;2022-09-17T02:51:48;12.50;99.90
39067;DHT22;24821;51.988;6.020;2022-09-17T02:56:56;12.50;99.90
39067;DHT22;24821;51.988;6.020;2022-09-17T02:59:48;12.50;99.90
39067;DHT22;24821;51.988;6.020;2022-09-17T03:02:47;12.50;99.90
39067;DHT22;24821;51.988;6.020;2022-09-17T03:05:12;12.40;99.90
39067;DHT22;24821;51.988;6.020;2022-09-17T03:07:38;12.40;99.90
39067;DHT22;24821;51.988;6.020;2022-09-17T03:10:05;12.40;99.90
39067;DHT22;24821;51.988;6.020;2022-09-17T03:12:31;12.40;99.90
39067;DHT22;24821;51.988;6.020;2022-09-17T03:14:56;12.40;99.90
39067;DHT22;24821;51.988;6.020;2022-09-17T03:17:22;12.30;99.90
39067;DHT22;24821;51.988;6.020;2022-09-17T03:19:47;12.30;99.90
39067;DHT22;24821;51.988;6.020;2022-09-17T03:22:13;12.30;99.90
39067;DHT22;24821;51.988;6.020;2022-09-17T03:24:38;12.20;99.90
39067;DHT22;24821;51.988;6.020;2022-09-17T03:27:04;12.20;99.90
39067;DHT22;24821;51.988;6.020;2022-09-17T03:29:30;12.10;99.90
39067;DHT22;24821;51.988;6.020;2022-09-17T03:31:55;12.10;99.90
39067;DHT22;24821;51.988;6.020;2022-09-17T03:34:21;12.10;99.90
39067;DHT22;24821;51.988;6.020;2022-09-17T03:36:46;12.00;99.90
39067;DHT22;24821;51.988;6.020;2022-09-17T03:39:12;12.00;99.90
39067;DHT22;24821;51.988;6.020;2022-09-17T03:41:37;12.00;99.90
39067;DHT22;24821;51.988;6.020;2022-09-17T03:44:04;11.90;99.90
39067;DHT22;24821;51.988;6.020;2022-09-17T03:46:30;11.90;99.90
39067;DHT22;24821;51.988;6.020;2022-09-17T03:48:55;11.80;99.90
39067;DHT22;24821;51.988;6.020;2022-09-17T03:51:21;11.80;99.90
39067;DHT22;24821;51.988;6.020;2022-09-17T03:53:46;11.70;99.90
39067;DHT22;24821;51.988;6.020;2022-09-17T03:56:12;11.70;99.90
39067;DHT22;24821;51.988;6.020;2022-09-17T03:58:38;11.80;99.90
39067;DHT22;24821;51.988;6.020;2022-09-17T04:01:04;11.80;99.90
39067;DHT22;24821;51.988;6.020;2022-09-17T04:03:29;11.80;99.90
39067;DHT22;24821;51.988;6.020;2022-09-17T04:05:55;11.90;99.90
39067;DHT22;24821;51.988;6.020;2022-09-17T04:08:21;11.90;99.90
39067;DHT22;24821;51.988;6.020;2022-09-17T04:10:47;11.90;99.90
39067;DHT22;24821;51.988;6.020;2022-09-17T04:13:14;11.90;99.90
39067;DHT22;24821;51.988;6.020;2022-09-17T04:15:40;11.90;99.90
39067;DHT22;24821;51.988;6.020;2022-09-17T04:18:06;11.90;99.90
39067;DHT22;24821;51.988;6.020;2022-09-17T04:20:32;11.80;99.90
39067;DHT22;24821;51.988;6.020;2022-09-17T04:22:57;11.80;99.90
39067;DHT22;24821;51.988;6.020;2022-09-17T04:25:23;11.80;99.90
39067;DHT22;24821;51.988;6.020;2022-09-17T04:27:49;11.80;99.90
39067;DHT22;24821;51.988;6.020;2022-09-17T04:30:15;11.80;99.90
39067;DHT22;24821;51.988;6.020;2022-09-17T04:32:43;11.80;99.90
39067;DHT22;24821;51.988;6.020;2022-09-17T04:35:09;11.80;99.90
39067;DHT22;24821;51.988;6.020;2022-09-17T04:37:34;11.70;99.90
39067;DHT22;24821;51.988;6.020;2022-09-17T04:40:00;11.70;99.90
39067;DHT22;24821;51.988;6.020;2022-09-17T04:42:26;11.60;99.90
39067;DHT22;24821;51.988;6.020;2022-09-17T04:44:51;11.50;99.90
39067;DHT22;24821;51.988;6.020;2022-09-17T04:47:17;11.50;99.90
39067;DHT22;24821;51.988;6.020;2022-09-17T04:49:42;11.40;99.90
39067;DHT22;24821;51.988;6.020;2022-09-17T04:52:08;11.40;99.90
39067;DHT22;24821;51.988;6.020;2022-09-17T04:54:33;11.30;99.90
39067;DHT22;24821;51.988;6.020;2022-09-17T04:56:59;11.30;99.90
39067;DHT22;24821;51.988;6.020;2022-09-17T04:59:25;11.30;99.90
39067;DHT22;24821;51.988;6.020;2022-09-17T05:01:50;11.20;99.90
39067;DHT22;24821;51.988;6.020;2022-09-17T05:04:16;11.10;99.90
39067;DHT22;24821;51.988;6.020;2022-09-17T05:06:41;11.10;99.90
39067;DHT22;24821;51.988;6.020;2022-09-17T05:09:07;11.00;99.90
39067;DHT22;24821;51.988;6.020;2022-09-17T05:11:32;11.00;99.90
39067;DHT22;24821;51.988;6.020;2022-09-17T05:13:58;11.00;99.90
39067;DHT22;24821;51.988;6.020;2022-09-17T05:16:24;10.90;99.90
39067;DHT22;24821;51.988;6.020;2022-09-17T05:18:49;10.90;99.90
39067;DHT22;24821;51.988;6.020;2022-09-17T05:21:16;10.90;99.90
39067;DHT22;24821;51.988;6.020;2022-09-17T05:23:42;11.00;99.90
39067;DHT22;24821;51.988;6.020;2022-09-17T05:26:08;11.00;99.90
39067;DHT22;24821;51.988;6.020;2022-09-17T05:28:33;11.00;99.90
39067;DHT22;24821;51.988;6.020;2022-09-17T05:30:59;11.00;99.90
39067;DHT22;24821;51.988;6.020;2022-09-17T05:33:25;11.00;99.90
39067;DHT22;24821;51.988;6.020;2022-09-17T05:35:51;11.00;99.90
39067;DHT22;24821;51.988;6.020;2022-09-17T05:38:16;11.00;99.90
39067;DHT22;24821;51.988;6.020;2022-09-17T05:40:43;11.00;99.90
39067;DHT22;24821;51.988;6.020;2022-09-17T05:43:09;11.00;99.90
39067;DHT22;24821;51.988;6.020;2022-09-17T05:45:35;11.00;99.90
39067;DHT22;24821;51.988;6.020;2022-09-17T05:48:03;11.00;99.90
39067;DHT22;24821;51.988;6.020;2022-09-17T05:50:29;11.00;99.90
39067;DHT22;24821;51.988;6.020;2022-09-17T05:52:55;10.90;99.90
39067;DHT22;24821;51.988;6.020;2022-09-17T05:55:22;10.90;99.90
39067;DHT22;24821;51.988;6.020;2022-09-17T05:57:48;10.90;99.90
39067;DHT22;24821;51.988;6.020;2022-09-17T06:00:15;10.90;99.90
39067;DHT22;24821;51.988;6.020;2022-09-17T06:02:40;11.00;99.90
39067;DHT22;24821;51.988;6.020;2022-09-17T06:05:06;11.10;99.90
39067;DHT22;24821;51.988;6.020;2022-09-17T06:07:35;11.10;99.90
39067;DHT22;24821;51.988;6.020;2022-09-17T06:10:01;11.10;99.90
39067;DHT22;24821;51.988;6.020;2022-09-17T06:12:27;11.10;99.90
39067;DHT22;24821;51.988;6.020;2022-09-17T06:14:53;11.10;99.90
39067;DHT22;24821;51.988;6.020;2022-09-17T06:17:18;11.10;99.90
39067;DHT22;24821;51.988;6.020;2022-09-17T06:19:44;11.10;99.90
39067;DHT22;24821;51.988;6.020;2022-09-17T06:22:09;11.10;99.90
39067;DHT22;24821;51.988;6.020;2022-09-17T06:24:35;11.00;99.90
39067;DHT22;24821;51.988;6.020;2022-09-17T06:27:00;11.10;99.90
39067;DHT22;24821;51.988;6.020;2022-09-17T06:29:26;11.00;99.90
39067;DHT22;24821;51.988;6.020;2022-09-17T06:31:52;11.00;99.90
39067;DHT22;24821;51.988;6.020;2022-09-17T06:34:18;11.00;99.90
39067;DHT22;24821;51.988;6.020;2022-09-17T06:36:44;11.00;99.90
39067;DHT22;24821;51.988;6.020;2022-09-17T06:39:09;11.10;99.90
39067;DHT22;24821;51.988;6.020;2022-09-17T06:41:40;11.10;99.90
39067;DHT22;24821;51.988;6.020;2022-09-17T06:44:06;11.10;99.90
39067;DHT22;24821;51.988;6.020;2022-09-17T06:46:32;11.10;99.90
39067;DHT22;24821;51.988;6.020;2022-09-17T06:48:57;11.20;99.90
39067;DHT22;24821;51.988;6.020;2022-09-17T06:51:23;11.30;99.90
39067;DHT22;24821;51.988;6.020;2022-09-17T06:53:48;11.30;99.90
39067;DHT22;24821;51.988;6.020;2022-09-17T06:56:14;11.40;99.90
39067;DHT22;24821;51.988;6.020;2022-09-17T06:58:40;11.40;99.90
39067;DHT22;24821;51.988;6.020;2022-09-17T07:01:10;11.50;99.90
39067;DHT22;24821;51.988;6.020;2022-09-17T07:03:36;11.60;99.90
39067;DHT22;24821;51.988;6.020;2022-09-17T07:06:03;11.70;99.90
39067;DHT22;24821;51.988;6.020;2022-09-17T07:08:31;11.90;99.90
39067;DHT22;24821;51.988;6.020;2022-09-17T07:10:59;11.90;99.90
39067;DHT22;24821;51.988;6.020;2022-09-17T07:13:24;12.00;99.90
39067;DHT22;24821;51.988;6.020;2022-09-17T07:15:53;12.00;99.90
39067;DHT22;24821;51.988;6.020;2022-09-17T07:18:19;12.00;99.90
39067;DHT22;24821;51.988;6.020;2022-09-17T07:20:52;11.90;99.90
39067;DHT22;24821;51.988;6.020;2022-09-17T07:23:18;12.00;99.90
39067;DHT22;24821;51.988;6.020;2022-09-17T07:25:43;12.10;99.90
39067;DHT22;24821;51.988;6.020;2022-09-17T07:28:09;12.20;99.90
39067;DHT22;24821;51.988;6.020;2022-09-17T07:30:34;12.30;99.90
39067;DHT22;24821;51.988;6.020;2022-09-17T07:33:01;12.50;99.90
39067;DHT22;24821;51.988;6.020;2022-09-17T07:35:26;12.50;99.90
39067;DHT22;24821;51.988;6.020;2022-09-17T07:37:52;12.60;99.90
39067;DHT22;24821;51.988;6.020;2022-09-17T07:40:18;12.80;99.90
39067;DHT22;24821;51.988;6.020;2022-09-17T07:42:44;12.80;99.90
39067;DHT22;24821;51.988;6.020;2022-09-17T07:45:09;12.90;99.90
39067;DHT22;24821;51.988;6.020;2022-09-17T07:47:39;12.90;99.90
39067;DHT22;24821;51.988;6.020;2022-09-17T07:50:06;13.00;99.80
39067;DHT22;24821;51.988;6.020;2022-09-17T07:52:32;13.10;99.60
39067;DHT22;24821;51.988;6.020;2022-09-17T07:54:58;13.10;99.50
39067;DHT22;24821;51.988;6.020;2022-09-17T07:57:23;13.10;99.30
39067;DHT22;24821;51.988;6.020;2022-09-17T07:59:49;13.20;99.30
39067;DHT22;24821;51.988;6.020;2022-09-17T08:02:14;13.30;99.10
39067;DHT22;24821;51.988;6.020;2022-09-17T08:04:43;13.40;98.70
39067;DHT22;24821;51.988;6.020;2022-09-17T08:07:12;13.50;98.80
39067;DHT22;24821;51.988;6.020;2022-09-17T08:09:38;13.80;98.70
39067;DHT22;24821;51.988;6.020;2022-09-17T08:12:04;14.10;98.40
39067;DHT22;24821;51.988;6.020;2022-09-17T08:14:29;14.20;98.00
39067;DHT22;24821;51.988;6.020;2022-09-17T08:16:55;14.30;97.40
39067;DHT22;24821;51.988;6.020;2022-09-17T08:19:21;14.40;97.30
39067;DHT22;24821;51.988;6.020;2022-09-17T08:21:46;14.50;97.20
39067;DHT22;24821;51.988;6.020;2022-09-17T08:24:12;14.60;97.00
39067;DHT22;24821;51.988;6.020;2022-09-17T08:26:37;14.60;96.90
39067;DHT22;24821;51.988;6.020;2022-09-17T08:29:04;14.70;96.80
39067;DHT22;24821;51.988;6.020;2022-09-17T08:31:29;14.90;96.70
39067;DHT22;24821;51.988;6.020;2022-09-17T08:33:57;15.20;96.50
39067;DHT22;24821;51.988;6.020;2022-09-17T08:36:24;15.60;96.20
39067;DHT22;24821;51.988;6.020;2022-09-17T08:38:54;15.90;95.20
39067;DHT22;24821;51.988;6.020;2022-09-17T08:41:40;16.20;94.50
39067;DHT22;24821;51.988;6.020;2022-09-17T08:44:20;16.20;93.80
39067;DHT22;24821;51.988;6.020;2022-09-17T08:46:59;16.20;93.80
39067;DHT22;24821;51.988;6.020;2022-09-17T08:57:37;16.00;93.60
39067;DHT22;24821;51.988;6.020;2022-09-17T09:00:10;16.00;93.40
39067;DHT22;24821;51.988;6.020;2022-09-17T09:05:35;15.80;93.20
39067;DHT22;24821;51.988;6.020;2022-09-17T09:08:18;15.70;93.10
39067;DHT22;24821;51.988;6.020;2022-09-17T09:10:55;15.90;92.20
39067;DHT22;24821;51.988;6.020;2022-09-17T09:13:25;16.00;91.60
39067;DHT22;24821;51.988;6.020;2022-09-17T09:16:10;15.90;91.90
39067;DHT22;24821;51.988;6.020;2022-09-17T09:18:39;15.90;92.50
39067;DHT22;24821;51.988;6.020;2022-09-17T09:21:19;16.00;92.30
39067;DHT22;24821;51.988;6.020;2022-09-17T09:24:17;16.10;92.40
39067;DHT22;24821;51.988;6.020;2022-09-17T09:26:52;16.20;91.90
39067;DHT22;24821;51.988;6.020;2022-09-17T09:29:39;16.10;91.50
39067;DHT22;24821;51.988;6.020;2022-09-17T09:32:12;16.20;91.00
39067;DHT22;24821;51.988;6.020;2022-09-17T09:34:44;16.20;90.60
39067;DHT22;24821;51.988;6.020;2022-09-17T09:39:40;16.30;90.50
39067;DHT22;24821;51.988;6.020;2022-09-17T09:42:29;16.40;90.60
39067;DHT22;24821;51.988;6.020;2022-09-17T09:45:00;16.60;91.00
39067;DHT22;24821;51.988;6.020;2022-09-17T09:47:52;16.80;91.00
39067;DHT22;24821;51.988;6.020;2022-09-17T09:50:33;16.90;89.90
39067;DHT22;24821;51.988;6.020;2022-09-17T09:53:21;16.60;90.50
39067;DHT22;24821;51.988;6.020;2022-09-17T09:56:26;15.90;91.20
39067;DHT22;24821;51.988;6.020;2022-09-17T09:58:52;15.30;92.80
39067;DHT22;24821;51.988;6.020;2022-09-17T10:01:19;14.80;94.00
39067;DHT22;24821;51.988;6.020;2022-09-17T10:03:46;14.60;94.60
39067;DHT22;24821;51.988;6.020;2022-09-17T10:06:14;14.40;95.20
39067;DHT22;24821;51.988;6.020;2022-09-17T10:11:26;14.40;96.10
39067;DHT22;24821;51.988;6.020;2022-09-17T10:13:52;14.30;96.30
39067;DHT22;24821;51.988;6.020;2022-09-17T10:18:49;14.20;96.90
39067;DHT22;24821;51.988;6.020;2022-09-17T10:24:23;14.50;97.40
39067;DHT22;24821;51.988;6.020;2022-09-17T10:26:50;14.60;97.50
39067;DHT22;24821;51.988;6.020;2022-09-17T10:29:18;14.80;97.50
39067;DHT22;24821;51.988;6.020;2022-09-17T10:31:50;15.00;97.50
39067;DHT22;24821;51.988;6.020;2022-09-17T10:34:27;15.10;97.30
39067;DHT22;24821;51.988;6.020;2022-09-17T10:36:53;15.10;96.80
39067;DHT22;24821;51.988;6.020;2022-09-17T10:39:35;15.10;96.20
39067;DHT22;24821;51.988;6.020;2022-09-17T10:42:14;15.10;96.30
39067;DHT22;24821;51.988;6.020;2022-09-17T10:45:22;15.00;97.00
39067;DHT22;24821;51.988;6.020;2022-09-17T10:47:47;14.70;95.70
39067;DHT22;24821;51.988;6.020;2022-09-17T10:50:18;14.20;95.10
39067;DHT22;24821;51.988;6.020;2022-09-17T10:52:50;13.80;95.70
39067;DHT22;24821;51.988;6.020;2022-09-17T11:03:48;13.20;97.00
39067;DHT22;24821;51.988;6.020;2022-09-17T11:09:40;13.30;97.40
39067;DHT22;24821;51.988;6.020;2022-09-17T11:12:22;13.40;98.00
39067;DHT22;24821;51.988;6.020;2022-09-17T11:23:35;14.10;98.10
39067;DHT22;24821;51.988;6.020;2022-09-17T11:26:24;14.20;98.10
39067;DHT22;24821;51.988;6.020;2022-09-17T11:34:57;14.60;98.70
39067;DHT22;24821;51.988;6.020;2022-09-17T11:37:53;14.70;98.40
39067;DHT22;24821;51.988;6.020;2022-09-17T11:40:24;14.80;98.50
39067;DHT22;24821;51.988;6.020;2022-09-17T11:42:55;15.00;98.30
39067;DHT22;24821;51.988;6.020;2022-09-17T11:45:33;15.10;98.30
39067;DHT22;24821;51.988;6.020;2022-09-17T11:48:13;15.40;98.30
39067;DHT22;24821;51.988;6.020;2022-09-17T11:50:43;15.60;97.90
39067;DHT22;24821;51.988;6.020;2022-09-17T11:53:42;15.70;97.80
39067;DHT22;24821;51.988;6.020;2022-09-17T11:56:21;15.90;97.00
39067;DHT22;24821;51.988;6.020;2022-09-17T11:59:38;16.10;96.10
39067;DHT22;24821;51.988;6.020;2022-09-17T12:01:50;16.20;95.30
39067;DHT22;24821;51.988;6.020;2022-09-17T12:07:20;16.70;94.70
39067;DHT22;24821;51.988;6.020;2022-09-17T12:09:45;16.90;92.90
39067;DHT22;24821;51.988;6.020;2022-09-17T12:12:17;16.80;92.50
39067;DHT22;24821;51.988;6.020;2022-09-17T12:14:53;16.50;92.70
39067;DHT22;24821;51.988;6.020;2022-09-17T12:17:27;16.00;93.30
39067;DHT22;24821;51.988;6.020;2022-09-17T12:19:59;15.50;93.40
39067;DHT22;24821;51.988;6.020;2022-09-17T12:22:29;15.00;94.40
39067;DHT22;24821;51.988;6.020;2022-09-17T12:24:56;14.60;95.20
39067;DHT22;24821;51.988;6.020;2022-09-17T12:41:38;15.00;96.60
39067;DHT22;24821;51.988;6.020;2022-09-17T12:52:45;15.40;96.50
39067;DHT22;24821;51.988;6.020;2022-09-17T12:55:39;15.50;96.60
39067;DHT22;24821;51.988;6.020;2022-09-17T13:01:09;15.50;97.10
39067;DHT22;24821;51.988;6.020;2022-09-17T13:03:44;15.50;96.40
39067;DHT22;24821;51.988;6.020;2022-09-17T13:09:09;15.20;95.40
39067;DHT22;24821;51.988;6.020;2022-09-17T13:11:42;15.30;95.40
39067;DHT22;24821;51.988;6.020;2022-09-17T13:19:32;15.80;96.30
39067;DHT22;24821;51.988;6.020;2022-09-17T13:22:15;15.90;96.40
39067;DHT22;24821;51.988;6.020;2022-09-17T13:24:42;16.00;95.80
39067;DHT22;24821;51.988;6.020;2022-09-17T13:27:19;16.00;95.60
39067;DHT22;24821;51.988;6.020;2022-09-17T13:40:33;16.00;92.90
39067;DHT22;24821;51.988;6.020;2022-09-17T13:45:31;15.60;92.90
39067;DHT22;24821;51.988;6.020;2022-09-17T13:48:07;15.50;93.60
39067;DHT22;24821;51.988;6.020;2022-09-17T13:50:42;15.40;93.60
39067;DHT22;24821;51.988;6.020;2022-09-17T13:55:54;15.40;93.60
39067;DHT22;24821;51.988;6.020;2022-09-17T13:58:25;15.50;93.50
39067;DHT22;24821;51.988;6.020;2022-09-17T14:01:12;15.60;92.90
39067;DHT22;24821;51.988;6.020;2022-09-17T14:13:48;16.10;92.50
39067;DHT22;24821;51.988;6.020;2022-09-17T14:16:43;16.10;92.40
39067;DHT22;24821;51.988;6.020;2022-09-17T14:21:56;16.20;92.20
39067;DHT22;24821;51.988;6.020;2022-09-17T14:27:15;16.30;92.50
39067;DHT22;24821;51.988;6.020;2022-09-17T14:30:03;16.30;92.00
39067;DHT22;24821;51.988;6.020;2022-09-17T14:35:16;16.30;91.80
39067;DHT22;24821;51.988;6.020;2022-09-17T14:37:48;16.30;91.50
39067;DHT22;24821;51.988;6.020;2022-09-17T14:40:18;16.30;91.90
39067;DHT22;24821;51.988;6.020;2022-09-17T14:42:45;16.30;91.30
39067;DHT22;24821;51.988;6.020;2022-09-17T14:45:16;16.30;91.80
39067;DHT22;24821;51.988;6.020;2022-09-17T14:47:43;16.40;91.80
39067;DHT22;24821;51.988;6.020;2022-09-17T14:50:35;16.50;91.70
39067;DHT22;24821;51.988;6.020;2022-09-17T14:53:07;16.20;93.00
39067;DHT22;24821;51.988;6.020;2022-09-17T14:55:39;15.60;94.10
39067;DHT22;24821;51.988;6.020;2022-09-17T14:58:41;15.30;94.80
39067;DHT22;24821;51.988;6.020;2022-09-17T15:03:46;15.20;96.10
39067;DHT22;24821;51.988;6.020;2022-09-17T15:06:22;15.20;96.30
39067;DHT22;24821;51.988;6.020;2022-09-17T15:08:48;15.20;95.80
39067;DHT22;24821;51.988;6.020;2022-09-17T15:11:14;15.20;96.20
39067;DHT22;24821;51.988;6.020;2022-09-17T15:13:49;15.20;96.40
39067;DHT22;24821;51.988;6.020;2022-09-17T15:16:28;15.30;96.10
39067;DHT22;24821;51.988;6.020;2022-09-17T15:18:59;15.30;96.00
39067;DHT22;24821;51.988;6.020;2022-09-17T15:21:44;15.30;95.50
39067;DHT22;24821;51.988;6.020;2022-09-17T15:27:23;15.10;95.10
39067;DHT22;24821;51.988;6.020;2022-09-17T15:29:55;14.90;95.10
39067;DHT22;24821;51.988;6.020;2022-09-17T15:32:21;14.80;95.50
39067;DHT22;24821;51.988;6.020;2022-09-17T15:37:45;14.90;95.40
39067;DHT22;24821;51.988;6.020;2022-09-17T15:40:14;14.90;95.40
39067;DHT22;24821;51.988;6.020;2022-09-17T15:42:51;14.90;95.00
39067;DHT22;24821;51.988;6.020;2022-09-17T15:45:21;14.90;94.60
39067;DHT22;24821;51.988;6.020;2022-09-17T15:47:52;14.80;94.60
39067;DHT22;24821;51.988;6.020;2022-09-17T15:50:22;14.70;94.50
39067;DHT22;24821;51.988;6.020;2022-09-17T15:52:48;14.70;94.50
39067;DHT22;24821;51.988;6.020;2022-09-17T15:55:33;14.70;94.50
39067;DHT22;24821;51.988;6.020;2022-09-17T15:58:00;14.80;94.50
39067;DHT22;24821;51.988;6.020;2022-09-17T16:00:28;14.70;94.80
39067;DHT22;24821;51.988;6.020;2022-09-17T16:02:53;14.70;94.20
39067;DHT22;24821;51.988;6.020;2022-09-17T16:07:52;14.70;94.20
39067;DHT22;24821;51.988;6.020;2022-09-17T16:10:18;14.70;93.70
39067;DHT22;24821;51.988;6.020;2022-09-17T16:12:43;14.80;93.80
39067;DHT22;24821;51.988;6.020;2022-09-17T16:15:11;14.90;93.60
39067;DHT22;24821;51.988;6.020;2022-09-17T16:17:46;14.90;93.60
39067;DHT22;24821;51.988;6.020;2022-09-17T16:20:18;15.00;93.60
39067;DHT22;24821;51.988;6.020;2022-09-17T16:22:46;15.10;93.70
39067;DHT22;24821;51.988;6.020;2022-09-17T16:25:12;15.10;93.60
39067;DHT22;24821;51.988;6.020;2022-09-17T16:28:01;15.20;93.50
39067;DHT22;24821;51.988;6.020;2022-09-17T16:30:27;15.20;93.40
39067;DHT22;24821;51.988;6.020;2022-09-17T16:32:53;15.10;93.20
39067;DHT22;24821;51.988;6.020;2022-09-17T16:35:21;15.10;93.00
39067;DHT22;24821;51.988;6.020;2022-09-17T16:37:52;15.10;93.20
39067;DHT22;24821;51.988;6.020;2022-09-17T16:40:19;15.10;92.80
39067;DHT22;24821;51.988;6.020;2022-09-17T16:42:45;15.10;92.80
39067;DHT22;24821;51.988;6.020;2022-09-17T16:45:11;15.10;92.80
39067;DHT22;24821;51.988;6.020;2022-09-17T16:47:38;15.10;92.80
39067;DHT22;24821;51.988;6.020;2022-09-17T16:50:10;15.00;92.80
39067;DHT22;24821;51.988;6.020;2022-09-17T16:52:36;14.90;92.70
39067;DHT22;24821;51.988;6.020;2022-09-17T16:55:03;14.90;92.80
39067;DHT22;24821;51.988;6.020;2022-09-17T16:57:29;14.80;92.80
39067;DHT22;24821;51.988;6.020;2022-09-17T16:59:55;14.80;93.10
39067;DHT22;24821;51.988;6.020;2022-09-17T17:02:21;14.80;93.10
39067;DHT22;24821;51.988;6.020;2022-09-17T17:04:46;14.80;93.10
39067;DHT22;24821;51.988;6.020;2022-09-17T17:07:12;14.80;92.90
39067;DHT22;24821;51.988;6.020;2022-09-17T17:09:38;14.80;92.90
39067;DHT22;24821;51.988;6.020;2022-09-17T17:12:04;14.80;92.70
39067;DHT22;24821;51.988;6.020;2022-09-17T17:14:30;14.70;92.60
39067;DHT22;24821;51.988;6.020;2022-09-17T17:16:55;14.70;92.60
39067;DHT22;24821;51.988;6.020;2022-09-17T17:19:21;14.60;92.60
39067;DHT22;24821;51.988;6.020;2022-09-17T17:21:50;14.60;92.20
39067;DHT22;24821;51.988;6.020;2022-09-17T17:24:17;14.60;92.40
39067;DHT22;24821;51.988;6.020;2022-09-17T17:26:42;14.50;92.50
39067;DHT22;24821;51.988;6.020;2022-09-17T17:29:08;14.50;92.50
39067;DHT22;24821;51.988;6.020;2022-09-17T17:31:34;14.50;92.70
39067;DHT22;24821;51.988;6.020;2022-09-17T17:33:59;14.40;92.70
39067;DHT22;24821;51.988;6.020;2022-09-17T17:36:25;14.40;92.60
39067;DHT22;24821;51.988;6.020;2022-09-17T17:38:58;14.40;92.80
39067;DHT22;24821;51.988;6.020;2022-09-17T17:41:24;14.30;92.90
39067;DHT22;24821;51.988;6.020;2022-09-17T17:43:52;14.30;93.00
39067;DHT22;24821;51.988;6.020;2022-09-17T17:46:17;14.30;93.30
39067;DHT22;24821;51.988;6.020;2022-09-17T17:48:43;14.30;93.20
39067;DHT22;24821;51.988;6.020;2022-09-17T17:51:09;14.20;93.30
39067;DHT22;24821;51.988;6.020;2022-09-17T17:53:35;14.20;93.40
39067;DHT22;24821;51.988;6.020;2022-09-17T17:56:04;14.20;93.50
39067;DHT22;24821;51.988;6.020;2022-09-17T17:58:30;14.20;93.50
39067;DHT22;24821;51.988;6.020;2022-09-17T18:00:56;14.20;93.60
39067;DHT22;24821;51.988;6.020;2022-09-17T18:03:21;14.20;93.80
39067;DHT22;24821;51.988;6.020;2022-09-17T18:05:53;14.10;93.80
39067;DHT22;24821;51.988;6.020;2022-09-17T18:08:21;14.10;93.90
39067;DHT22;24821;51.988;6.020;2022-09-17T18:10:53;14.10;94.00
39067;DHT22;24821;51.988;6.020;2022-09-17T18:13:19;14.00;94.10
39067;DHT22;24821;51.988;6.020;2022-09-17T18:15:55;14.00;94.20
39067;DHT22;24821;51.988;6.020;2022-09-17T18:18:24;14.10;94.20
39067;DHT22;24821;51.988;6.020;2022-09-17T18:20:50;14.00;94.20
39067;DHT22;24821;51.988;6.020;2022-09-17T18:23:18;14.10;94.10
39067;DHT22;24821;51.988;6.020;2022-09-17T18:25:57;14.10;94.20
39067;DHT22;24821;51.988;6.020;2022-09-17T18:28:24;14.10;94.30
39067;DHT22;24821;51.988;6.020;2022-09-17T18:30:50;14.10;94.50
39067;DHT22;24821;51.988;6.020;2022-09-17T18:33:21;14.00;94.50
39067;DHT22;24821;51.988;6.020;2022-09-17T18:35:49;14.00;94.50